Have a Safe July 4th! 

Flight Track Log - Related Links

Times and Time Zones

All times are in EDT time to prevent confusion due to time zone crossing. See the ASQ4252 flight status page for this flight to view local times or setup timezone preferences in your user account.

Time Position Orientation Groundspeed Altitude Reporting Facility
EDT Latitude Longitude Course Direction KTS MPH feet Rate Location/Type
Fri 09:19:10 AM 41.9500 -87.9500 194° South 175 201 2,500  Level Chicago TRACON
Fri 09:20:10 AM 41.9000 -87.9833 206° Southwest 227 261 4,900 1,250 Climbing Chicago TRACON
Fri 09:21:10 AM 41.8500 -88.0000 194° South 250 288 5,000 737 Climbing Chicago TRACON
Fri 09:22:00 AM 41.6951 -88.2654 203° Southwest  Level Estimated
Fri 09:22:04 AM 41.7833 -88.0167 191° South 260 299 6,300  Level Chicago TRACON
Fri 09:23:00 AM 41.6233 -88.3545 197° South  Level Estimated
Fri 09:23:32 AM 41.6886 -88.0547 197° South 274 315 10,400  Level Chicago Center
Fri 09:24:00 AM 41.5514 -88.4435 194° South  Level Estimated
Fri 09:24:35 AM 41.5967 -88.0961 199° South 292 336 12,900  Level Chicago Center
Fri 09:25:37 AM 41.5050 -88.1361 198° South 349 402 14,400 1,694 Climbing Chicago Center
Fri 09:26:39 AM 41.4131 -88.1781 199° South 365 420 16,400 1,839 Climbing Chicago Center
Fri 09:27:41 AM 41.2975 -88.2283 198° South 372 428 18,200 1,984 Climbing Chicago Center
Fri 09:28:43 AM 41.2000 -88.2731 199° South 375 432 20,500 2,177 Climbing Chicago Center
Fri 09:29:45 AM 41.1050 -88.3164 199° South 367 422 22,700 1,984 Climbing Chicago Center
Fri 09:30:47 AM 41.0119 -88.3589 199° South 358 412 24,600 2,032 Climbing Chicago Center
Fri 09:31:49 AM 40.9178 -88.3989 198° South 358 412 26,900 1,161 Climbing Chicago Center
Fri 09:32:51 AM 40.8006 -88.4522 199° South 374 430 27,000 677 Climbing Chicago Center
Fri 09:33:53 AM 40.6928 -88.4997 198° South 403 464 28,300 1,403 Climbing Chicago Center
Fri 09:34:55 AM 40.5903 -88.5464 199° South 395 455 29,900 823 Climbing Chicago Center
Fri 09:35:57 AM 40.4842 -88.5939 199° South 401 461 30,000 48 Climbing Chicago Center
Fri 09:36:59 AM 40.3600 -88.6467 198° South 434 499 30,000  Level Chicago Center
Fri 09:38:02 AM 40.2583 -88.7411 215° Southwest 451 519 30,000  Level Chicago Center
Fri 09:39:04 AM 40.1708 -88.8553 225° Southwest 446 513 30,000  Level Chicago Center
Fri 09:40:06 AM 40.0828 -88.9650 224° Southwest 438 504 30,000  Level Chicago Center
Fri 09:41:08 AM 39.9792 -89.0972 224° Southwest 433 498 30,000 165 Level Chicago Center
Fri 09:41:55 AM 39.9253 -89.1633 223° Southwest 434 499 30,300 1,211 Climbing Kansas City Center
Fri 09:42:57 AM 39.8267 -89.2889 224° Southwest 418 481 32,200 1,756 Climbing Kansas City Center
Fri 09:43:58 AM 39.7517 -89.3831 224° Southwest 387 445 33,900 1,512 Climbing Kansas City Center
Fri 09:45:00 AM 39.6886 -89.4647 225° Southwest 374 430 35,300 1,024 Climbing Kansas City Center
Fri 09:46:01 AM 39.6103 -89.5822 229° Southwest 362 417 36,000 341 Climbing Kansas City Center
Fri 09:47:03 AM 39.5381 -89.6861 228° Southwest 378 435 36,000  Level Kansas City Center
Fri 09:48:05 AM 39.4622 -89.7958 228° Southwest 402 463 36,000  Level Kansas City Center
Fri 09:49:06 AM 39.3867 -89.9058 228° Southwest 410 472 36,000  Level Kansas City Center
Fri 09:50:08 AM 39.3117 -90.0131 228° Southwest 406 467 36,000  Level Kansas City Center
Fri 09:51:09 AM 39.2381 -90.1206 229° Southwest 402 463 36,000  Level Kansas City Center
Fri 09:52:11 AM 39.1644 -90.2261 228° Southwest 400 460 36,000  Level Kansas City Center
Fri 09:53:13 AM 39.0767 -90.3522 228° Southwest 398 458 36,000  Level Kansas City Center
Fri 09:54:14 AM 39.0039 -90.4569 228° Southwest 397 457 36,000  Level Kansas City Center
Fri 09:55:16 AM 38.9372 -90.5522 228° Southwest 396 456 36,000  Level Kansas City Center
Fri 09:56:17 AM 38.8481 -90.6767 227° Southwest 393 452 36,000  Level Kansas City Center
Fri 09:57:19 AM 38.7839 -90.7653 227° Southwest 395 455 36,000  Level Kansas City Center
Fri 09:58:21 AM 38.7106 -90.8678 228° Southwest 394 453 36,000  Level Kansas City Center
Fri 09:59:25 AM 38.6219 -90.9922 228° Southwest 394 453 36,000  Level Kansas City Center
Fri 10:00:27 AM 38.5478 -91.0958 228° Southwest 395 455 36,000 -390 Level Kansas City Center
Fri 10:01:28 AM 38.4722 -91.2011 228° Southwest 400 460 35,200 -878 Descending Kansas City Center
Fri 10:02:30 AM 38.3906 -91.3128 227° Southwest 416 479 34,200 -581 Descending Kansas City Center
Fri 10:03:32 AM 38.2947 -91.4428 227° Southwest 418 481 34,000 -98 Descending Kansas City Center
Fri 10:04:33 AM 38.2136 -91.5564 228° Southwest 424 488 34,000  Level Kansas City Center
Fri 10:05:35 AM 38.1317 -91.6689 227° Southwest 429 494 34,000  Level Kansas City Center
Fri 10:06:37 AM 38.0483 -91.7800 226° Southwest 430 495 34,000  Level Kansas City Center
Fri 10:07:38 AM 37.9644 -91.8931 227° Southwest 435 501 34,000  Level Kansas City Center
Fri 10:08:40 AM 37.8822 -92.0044 227° Southwest 432 497 34,000  Level Kansas City Center
Fri 10:09:42 AM 37.8036 -92.1119 227° Southwest 438 504 34,000 -629 Level Kansas City Center
Fri 10:10:44 AM 37.7189 -92.2228 226° Southwest 441 507 32,700 -1,512 Descending Kansas City Center
Fri 10:11:45 AM 37.6267 -92.3483 227° Southwest 444 511 30,900 -1,707 Descending Kansas City Center
Fri 10:12:47 AM 37.5303 -92.4494 220° Southwest 445 512 29,200 -1,645 Descending Kansas City Center
Fri 10:13:49 AM 37.4319 -92.5497 219° Southwest 451 519 27,500 -2,032 Descending Kansas City Center
Fri 10:14:51 AM 37.3133 -92.6678 218° Southwest 451 519 25,000 -2,244 Descending Kansas City Center
Fri 10:15:52 AM 37.2172 -92.7689 220° Southwest 450 518 22,900 -1,854 Descending Kansas City Center
Fri 10:16:54 AM 37.1406 -92.8806 229° Southwest 422 486 21,200 -1,500 Descending Kansas City Center
Fri 10:17:56 AM 37.0767 -92.9939 235° Southwest 405 466 19,800 -1,452 Descending Kansas City Center
Fri 10:18:58 AM 37.0133 -93.1081 235° Southwest 398 458 18,200 -1,500 Descending Kansas City Center
Fri 10:20:00 AM 36.9511 -93.2197 235° Southwest 394 453 16,700 -1,512 Descending Kansas City Center
Fri 10:21:01 AM 36.8850 -93.3219 231° Southwest 384 442 15,100 -1,512 Descending Kansas City Center
Fri 10:22:03 AM 36.8094 -93.4169 225° Southwest 357 411 13,600 -1,306 Descending Kansas City Center
Fri 10:23:05 AM 36.7500 -93.5153 233° Southwest 366 421 12,400 -1,113 Descending Kansas City Center
Fri 10:24:07 AM 36.7206 -93.6344 253° West 362 417 11,300 -1,065 Descending Kansas City Center
Fri 10:25:09 AM 36.6944 -93.7492 254° West 349 402 10,200 -976 Descending Kansas City Center
Fri 10:26:10 AM 36.6603 -93.8619 249° West 295 339 9,300 -1,122 Descending Kansas City Center
Fri 10:27:12 AM 36.6311 -93.9500 248° West 277 319 7,900 -1,355 Descending Kansas City Center
Fri 10:28:14 AM 36.6056 -94.0364 250° West 271 312 6,500 -1,452 Descending Kansas City Center
Fri 10:29:16 AM 36.5783 -94.1194 248° West 265 305 4,900 -1,210 Descending Kansas City Center
Fri 10:30:18 AM 36.5506 -94.2039 248° West 264 304 4,000 -435 Descending Kansas City Center
Fri 10:31:20 AM 36.5244 -94.2836 248° West 257 296 4,000  Level Kansas City Center
Fri 10:32:21 AM 36.4983 -94.3628 248° West 252 290 4,000  Level Kansas City Center

Login

Don't have an account? Register now (free) for customized features, flight alerts, and more!